Time;durP1;ratioP1;P1;durP2;ratioP2;P2;SDS_P1;SDS_P2;PMS_P1;PMS_P2;Temp;Humidity;BMP_temperature;BMP_pressure;BME280_temperature;BME280_humidity;BME280_pressure;Samples;Min_cycle;Max_cycle;Signal;HPM_P1;HPM_P2
2022/08/17 00:00:12;;;;;;;0.70;0.20;;;24.30;99.90;;;;;;5075775;28;20492;-76
2022/08/17 00:03:04;;;;;;;0.70;0.13;;;24.30;99.90;;;;;;5075749;28;20472;-76
2022/08/17 00:05:35;;;;;;;0.70;0.20;;;24.30;99.90;;;;;;5072055;28;20516;-76
2022/08/17 00:08:05;;;;;;;0.70;0.10;;;24.30;99.90;;;;;;5071570;28;20448;-76
2022/08/17 00:10:33;;;;;;;0.70;0.10;;;24.40;99.90;;;;;;5059931;28;20462;-76
2022/08/17 00:13:06;;;;;;;0.70;0.10;;;24.30;99.90;;;;;;5054942;28;20453;-76
2022/08/17 00:15:34;;;;;;;0.70;0.10;;;24.30;99.90;;;;;;5055088;28;20446;-76
2022/08/17 00:18:02;;;;;;;0.70;0.20;;;24.20;99.90;;;;;;5056974;28;20446;-76
2022/08/17 00:20:50;;;;;;;0.70;0.10;;;24.10;99.90;;;;;;5057023;28;20478;-76
2022/08/17 00:23:19;;;;;;;0.70;0.10;;;24.00;99.90;;;;;;5055274;28;20453;-76
2022/08/17 00:25:48;;;;;;;0.70;0.20;;;23.90;99.90;;;;;;5054682;28;20439;-76
2022/08/17 00:28:16;;;;;;;0.70;0.10;;;23.90;99.90;;;;;;5056836;28;20446;-76
2022/08/17 00:30:49;;;;;;;0.70;0.20;;;23.90;99.90;;;;;;5074780;28;20821;-76
2022/08/17 00:33:23;;;;;;;0.80;0.33;;;23.80;99.90;;;;;;5074362;28;20594;-76
2022/08/17 00:35:53;;;;;;;0.70;0.20;;;23.80;99.90;;;;;;5074342;28;20513;-76
2022/08/17 00:38:23;;;;;;;0.70;0.20;;;23.80;99.90;;;;;;5073627;28;20446;-76
2022/08/17 00:40:53;;;;;;;0.70;0.20;;;;;;;;;;5073700;28;20485;-75
2022/08/17 00:43:29;;;;;;;0.70;0.20;;;23.80;99.90;;;;;;5073458;28;20423;-75
2022/08/17 00:45:58;;;;;;;0.70;0.10;;;23.80;99.90;;;;;;5073546;28;21017;-76
2022/08/17 00:48:26;;;;;;;0.70;0.10;;;23.80;99.90;;;;;;5073284;28;21044;-76
2022/08/17 00:51:02;;;;;;;0.70;0.20;;;23.70;99.90;;;;;;5073597;28;20466;-76
2022/08/17 00:53:34;;;;;;;0.70;0.20;;;23.70;99.90;;;;;;5073131;28;20846;-76
2022/08/17 00:56:06;;;;;;;0.70;0.20;;;23.80;99.90;;;;;;5073365;28;20853;-76
2022/08/17 00:58:36;;;;;;;0.70;0.20;;;23.80;99.90;;;;;;5073049;28;20445;-75
2022/08/17 01:01:05;;;;;;;0.70;0.10;;;23.80;99.90;;;;;;5072829;28;20486;-76
2022/08/17 01:03:34;;;;;;;0.70;0.20;;;23.80;99.90;;;;;;5073493;28;20450;-76
2022/08/17 01:06:03;;;;;;;0.70;0.10;;;23.80;99.90;;;;;;5072107;28;20547;-75
2022/08/17 01:08:33;;;;;;;0.70;0.10;;;23.80;99.90;;;;;;5073045;28;20460;-75
2022/08/17 01:11:04;;;;;;;0.70;0.10;;;23.70;99.90;;;;;;5073010;28;20817;-76
2022/08/17 01:13:35;;;;;;;0.70;0.20;;;23.70;99.90;;;;;;5073033;28;20437;-75
2022/08/17 01:16:15;;;;;;;0.70;0.20;;;23.60;99.90;;;;;;5072914;28;20425;-76
2022/08/17 01:18:45;;;;;;;0.80;0.30;;;23.50;99.90;;;;;;5072710;28;20445;-75
2022/08/17 01:21:20;;;;;;;0.70;0.20;;;23.50;99.90;;;;;;5072511;28;20489;-75
2022/08/17 01:23:49;;;;;;;0.70;0.13;;;23.40;99.90;;;;;;5072571;28;20494;-76
2022/08/17 01:26:18;;;;;;;0.70;0.10;;;23.40;99.90;;;;;;5072376;28;20471;-75
2022/08/17 01:28:46;;;;;;;0.70;0.20;;;23.40;99.90;;;;;;5072437;28;20453;-75
2022/08/17 01:31:23;;;;;;;0.70;0.10;;;23.40;99.90;;;;;;5072615;28;20932;-75
2022/08/17 01:33:52;;;;;;;0.70;0.10;;;23.40;99.90;;;;;;5072712;28;20442;-76
2022/08/17 01:36:20;;;;;;;0.70;0.10;;;23.30;99.90;;;;;;5072478;28;20460;-76
2022/08/17 01:38:49;;;;;;;0.70;0.20;;;23.30;99.90;;;;;;5072254;28;20469;-75
2022/08/17 01:41:18;;;;;;;2.60;2.23;;;23.30;99.90;;;;;;5072319;28;20477;-75
2022/08/17 01:43:50;;;;;;;0.70;0.20;;;23.30;99.90;;;;;;5072533;28;20446;-76
2022/08/17 01:46:23;;;;;;;0.70;0.10;;;23.30;99.90;;;;;;5072438;28;20485;-75
2022/08/17 01:48:51;;;;;;;0.70;0.20;;;23.30;99.90;;;;;;5072291;28;20438;-75
2022/08/17 01:51:20;;;;;;;0.70;0.10;;;23.30;99.90;;;;;;5072219;28;20448;-76
2022/08/17 01:53:52;;;;;;;0.70;0.13;;;23.30;99.90;;;;;;5072176;28;20442;-75
2022/08/17 01:56:23;;;;;;;0.70;0.10;;;23.20;99.90;;;;;;5071864;28;20438;-76
2022/08/17 01:58:52;;;;;;;0.70;0.20;;;23.10;99.90;;;;;;5072190;28;20545;-76
2022/08/17 02:01:25;;;;;;;2.30;1.13;;;23.10;99.90;;;;;;5071986;28;20482;-75
2022/08/17 02:03:53;;;;;;;0.70;0.20;;;23.00;99.90;;;;;;5072380;28;20489;-76
2022/08/17 02:06:29;;;;;;;0.70;0.17;;;23.00;99.90;;;;;;5072120;28;20437;-76
2022/08/17 02:09:11;;;;;;;0.70;0.10;;;23.00;99.90;;;;;;5071983;28;20501;-76
2022/08/17 02:11:44;;;;;;;0.70;0.20;;;23.00;99.90;;;;;;5072033;28;20831;-76
2022/08/17 02:14:13;;;;;;;0.70;0.20;;;22.90;99.90;;;;;;5071856;28;20454;-75
2022/08/17 02:16:42;;;;;;;0.70;0.10;;;22.80;99.90;;;;;;5071627;28;20434;-76
2022/08/17 02:19:12;;;;;;;0.70;0.20;;;22.80;99.90;;;;;;5071603;28;21078;-76
2022/08/17 02:21:41;;;;;;;0.70;0.20;;;22.80;99.90;;;;;;5072336;28;20485;-76
2022/08/17 02:24:15;;;;;;;0.70;0.10;;;22.70;99.90;;;;;;5072026;28;20796;-76
2022/08/17 02:26:45;;;;;;;0.70;0.10;;;22.80;99.90;;;;;;5071767;28;20442;-76
2022/08/17 02:29:14;;;;;;;0.70;0.20;;;22.80;99.90;;;;;;5062053;28;20464;-76
2022/08/17 02:31:42;;;;;;;0.70;0.10;;;22.80;99.90;;;;;;5052223;28;20446;-76
2022/08/17 02:34:11;;;;;;;0.70;0.10;;;22.90;99.90;;;;;;5052185;28;20444;-76
2022/08/17 02:36:39;;;;;;;0.70;0.10;;;22.90;99.90;;;;;;5052316;28;20451;-75
2022/08/17 02:39:12;;;;;;;0.70;0.20;;;22.90;99.90;;;;;;5051591;28;20463;-75
2022/08/17 02:41:40;;;;;;;0.70;0.10;;;22.80;99.90;;;;;;5052163;28;20482;-76
2022/08/17 02:44:08;;;;;;;0.70;0.10;;;22.90;99.90;;;;;;5051850;28;20446;-76
2022/08/17 02:46:36;;;;;;;0.70;0.20;;;22.90;99.90;;;;;;5051652;28;20442;-75
2022/08/17 02:49:04;;;;;;;0.70;0.20;;;22.90;99.90;;;;;;5051410;28;20648;-75
2022/08/17 02:51:34;;;;;;;0.70;0.10;;;22.90;99.90;;;;;;5051382;28;20470;-76
2022/08/17 02:54:02;;;;;;;0.70;0.13;;;22.90;99.90;;;;;;5051687;28;20466;-76
2022/08/17 02:56:51;;;;;;;0.70;0.10;;;22.90;99.90;;;;;;5051428;28;20498;-75
2022/08/17 02:59:19;;;;;;;0.70;0.10;;;22.90;99.90;;;;;;5051491;28;20474;-75
2022/08/17 03:01:47;;;;;;;0.70;0.10;;;22.90;99.90;;;;;;5051291;28;20520;-76
2022/08/17 03:04:15;;;;;;;0.70;0.20;;;22.90;99.90;;;;;;5051483;28;20452;-75
2022/08/17 03:06:43;;;;;;;0.70;0.20;;;22.90;99.90;;;;;;5051557;28;20450;-75
2022/08/17 03:09:12;;;;;;;0.70;0.10;;;22.90;99.90;;;;;;5051162;28;20473;-75
2022/08/17 03:11:39;;;;;;;0.70;0.20;;;22.90;99.90;;;;;;5051005;28;20967;-77
2022/08/17 03:14:09;;;;;;;0.70;0.10;;;22.90;99.90;;;;;;5051187;28;20979;-75
2022/08/17 03:16:37;;;;;;;0.70;0.20;;;22.90;99.90;;;;;;5051174;28;20443;-75
2022/08/17 03:19:06;;;;;;;0.70;0.10;;;22.90;99.90;;;;;;5051097;28;20471;-75
2022/08/17 03:21:33;;;;;;;0.70;0.20;;;22.90;99.90;;;;;;5051501;28;20478;-76
2022/08/17 03:24:01;;;;;;;0.70;0.20;;;22.90;99.90;;;;;;5051771;28;20446;-75
2022/08/17 03:26:36;;;;;;;0.70;0.17;;;22.90;99.90;;;;;;5051713;28;20425;-76
2022/08/17 03:29:04;;;;;;;0.70;0.10;;;22.90;99.90;;;;;;5060989;28;20461;-76
2022/08/17 03:31:33;;;;;;;0.70;0.10;;;22.90;99.90;;;;;;5074734;28;20442;-76
2022/08/17 03:34:04;;;;;;;0.70;0.10;;;;;;;;;;5074956;28;20524;-76
2022/08/17 03:36:32;;;;;;;0.70;0.17;;;22.80;99.90;;;;;;5075027;28;20449;-75
2022/08/17 03:39:03;;;;;;;0.70;0.20;;;22.80;99.90;;;;;;5075026;28;20454;-76
2022/08/17 03:41:31;;;;;;;0.70;0.10;;;22.80;99.90;;;;;;5074585;28;20477;-75
2022/08/17 03:43:59;;;;;;;0.70;0.20;;;22.80;99.90;;;;;;5074679;28;20448;-76
2022/08/17 03:57:32;;;;;;;0.70;0.10;;;22.60;99.90;;;;;;5076128;28;20516;-75
2022/08/17 04:00:00;;;;;;;0.70;0.20;;;22.60;99.90;;;;;;5074562;28;20465;-76
2022/08/17 04:02:30;;;;;;;0.70;0.20;;;22.50;99.90;;;;;;5074306;28;21138;-76
2022/08/17 04:05:00;;;;;;;0.70;0.10;;;22.40;99.90;;;;;;5074657;28;20743;-76
2022/08/17 04:07:30;;;;;;;0.70;0.10;;;22.50;99.90;;;;;;5074001;28;21114;-76
2022/08/17 04:09:58;;;;;;;1.27;1.17;;;22.40;99.90;;;;;;5074649;28;20465;-75
2022/08/17 04:12:29;;;;;;;0.70;0.10;;;22.40;99.90;;;;;;5074503;28;20445;-76
2022/08/17 04:14:57;;;;;;;0.70;0.10;;;22.40;99.90;;;;;;5073946;28;20487;-76
2022/08/17 04:17:27;;;;;;;0.70;0.20;;;22.40;99.90;;;;;;5074199;28;20450;-76
2022/08/17 04:19:56;;;;;;;0.70;0.20;;;22.30;99.90;;;;;;5074520;28;20473;-76
2022/08/17 04:22:26;;;;;;;0.70;0.10;;;22.30;99.90;;;;;;5073741;28;20516;-76
2022/08/17 04:25:03;;;;;;;0.70;0.20;;;22.30;99.90;;;;;;5073884;28;20440;-76
2022/08/17 04:27:31;;;;;;;0.70;0.17;;;22.20;99.90;;;;;;5073590;28;20430;-76
2022/08/17 04:29:59;;;;;;;0.70;0.10;;;22.20;99.90;;;;;;5057064;28;20860;-76
2022/08/17 04:32:27;;;;;;;0.70;0.20;;;22.20;99.90;;;;;;5061988;28;20439;-75
2022/08/17 04:35:19;;;;;;;0.70;0.10;;;22.20;99.90;;;;;;5054098;28;20439;-76
2022/08/17 04:37:49;;;;;;;0.70;0.10;;;22.10;99.90;;;;;;5062154;28;20442;-77
2022/08/17 04:43:06;;;;;;;0.70;0.20;;;22.10;99.90;;;;;;5074084;28;20481;-76
2022/08/17 04:45:37;;;;;;;0.70;0.10;;;22.10;99.90;;;;;;5073915;28;20445;-77
2022/08/17 04:48:06;;;;;;;0.70;0.17;;;22.10;99.90;;;;;;5062448;28;20502;-77
2022/08/17 04:50:34;;;;;;;0.70;0.10;;;22.20;99.90;;;;;;5053188;28;20969;-76
2022/08/17 04:53:04;;;;;;;0.70;0.20;;;22.20;99.90;;;;;;5053467;28;20434;-75
2022/08/17 04:55:32;;;;;;;0.70;0.20;;;22.20;99.90;;;;;;5053281;28;20812;-76
2022/08/17 04:57:59;;;;;;;0.70;0.10;;;22.20;99.90;;;;;;5053251;28;20446;-74
2022/08/17 05:00:27;;;;;;;0.70;0.10;;;22.20;99.90;;;;;;5053796;28;20467;-76
2022/08/17 05:02:56;;;;;;;0.70;0.20;;;22.20;99.90;;;;;;5052723;28;20478;-75
2022/08/17 05:05:27;;;;;;;0.70;0.20;;;22.20;99.90;;;;;;5061061;28;20447;-76
2022/08/17 05:08:01;;;;;;;0.70;0.10;;;22.20;99.90;;;;;;5071462;28;20438;-76
2022/08/17 05:10:33;;;;;;;0.70;0.20;;;22.10;99.90;;;;;;5073033;28;20466;-76
2022/08/17 05:13:06;;;;;;;0.70;0.20;;;22.10;99.90;;;;;;5073229;28;20456;-77
2022/08/17 05:15:38;;;;;;;1.30;0.77;;;22.10;99.90;;;;;;5073416;28;20479;-76
2022/08/17 05:18:12;;;;;;;0.70;0.10;;;22.10;99.90;;;;;;5073250;28;20509;-76
2022/08/17 05:20:41;;;;;;;0.70;0.20;;;22.10;99.90;;;;;;5072493;28;20477;-77
2022/08/17 05:23:11;;;;;;;0.70;0.10;;;22.10;99.90;;;;;;5073544;28;20509;-75
2022/08/17 05:25:43;;;;;;;0.70;0.10;;;22.10;99.90;;;;;;5072782;28;20807;-75
2022/08/17 05:28:15;;;;;;;0.70;0.20;;;22.20;99.90;;;;;;5071763;28;20464;-75
2022/08/17 05:30:45;;;;;;;0.70;0.10;;;22.30;99.90;;;;;;5053779;28;20471;-76
2022/08/17 05:33:19;;;;;;;0.70;0.20;;;22.30;99.90;;;;;;5053536;28;20443;-76
2022/08/17 05:35:50;;;;;;;0.70;0.20;;;22.30;99.90;;;;;;5051878;28;20535;-74
2022/08/17 05:38:21;;;;;;;1.30;0.67;;;22.40;99.90;;;;;;5052020;28;20851;-76
2022/08/17 05:40:52;;;;;;;0.80;0.47;;;22.50;99.90;;;;;;5052247;28;21060;-76
2022/08/17 05:43:22;;;;;;;0.70;0.20;;;22.60;99.90;;;;;;5052524;28;21051;-75
2022/08/17 05:45:57;;;;;;;0.70;0.20;;;22.60;99.90;;;;;;5052625;28;20443;-77
2022/08/17 05:48:25;;;;;;;0.70;0.20;;;22.70;99.90;;;;;;5051758;28;20971;-76
2022/08/17 05:51:31;;;;;;;0.70;0.20;;;22.70;99.90;;;;;;5052016;28;20462;-77
2022/08/17 05:54:21;;;;;;;0.70;0.13;;;22.80;99.90;;;;;;5052337;28;20530;-76
2022/08/17 05:57:07;;;;;;;0.70;0.10;;;22.80;99.90;;;;;;5051933;28;21087;-76
2022/08/17 05:59:48;;;;;;;0.70;0.13;;;22.80;99.90;;;;;;5052086;28;20520;-77
2022/08/17 06:02:22;;;;;;;0.70;0.10;;;22.80;99.90;;;;;;5054361;28;20485;-77
2022/08/17 06:05:08;;;;;;;0.70;0.10;;;22.80;99.90;;;;;;5055185;28;20442;-77
2022/08/17 06:07:47;;;;;;;0.70;0.10;;;22.90;99.90;;;;;;5071324;28;21007;-77
2022/08/17 06:10:28;;;;;;;0.70;0.20;;;22.90;99.90;;;;;;5071755;28;20548;-76
2022/08/17 06:13:05;;;;;;;0.70;0.10;;;22.90;99.90;;;;;;5072022;28;20437;-76
2022/08/17 06:15:50;;;;;;;0.70;0.10;;;22.90;99.90;;;;;;5071620;28;20452;-77
2022/08/17 06:18:20;;;;;;;0.70;0.20;;;22.90;99.90;;;;;;5071215;28;20437;-77
2022/08/17 06:20:52;;;;;;;0.70;0.10;;;22.80;99.90;;;;;;5071764;28;20876;-76
2022/08/17 06:23:26;;;;;;;0.70;0.10;;;22.80;99.90;;;;;;5071441;28;20477;-77
2022/08/17 06:26:02;;;;;;;0.70;0.20;;;22.80;99.90;;;;;;5071346;28;20446;-77
2022/08/17 06:28:47;;;;;;;2.30;0.50;;;22.90;99.90;;;;;;5067412;28;20442;-77
2022/08/17 06:31:21;;;;;;;1.60;1.50;;;22.90;99.90;;;;;;5051582;28;20870;-76
2022/08/17 06:33:49;;;;;;;0.70;0.17;;;22.90;99.90;;;;;;5051531;28;20493;-76
2022/08/17 06:36:30;;;;;;;0.70;0.20;;;22.90;99.90;;;;;;5051472;28;20450;-76
2022/08/17 06:39:17;;;;;;;0.70;0.30;;;22.90;99.90;;;;;;5051595;28;20470;-77
2022/08/17 06:41:53;;;;;;;0.70;0.20;;;22.90;99.90;;;;;;5051868;28;20443;-76
2022/08/17 06:44:29;;;;;;;0.70;0.20;;;22.90;99.90;;;;;;5051085;28;20473;-75
2022/08/17 06:47:24;;;;;;;0.70;0.20;;;22.90;99.90;;;;;;5051458;28;20458;-77
2022/08/17 06:50:06;;;;;;;0.70;0.20;;;22.90;99.90;;;;;;5051610;28;20462;-75
2022/08/17 06:52:44;;;;;;;0.70;0.10;;;22.90;99.90;;;;;;5052000;28;20462;-76
2022/08/17 06:55:29;;;;;;;0.70;0.20;;;23.00;99.90;;;;;;5052164;28;20483;-76
2022/08/17 06:58:07;;;;;;;0.70;0.20;;;23.10;99.90;;;;;;5052141;28;20427;-76
2022/08/17 07:00:47;;;;;;;0.70;0.10;;;23.30;99.90;;;;;;5052590;28;20466;-77
2022/08/17 07:03:26;;;;;;;0.70;0.10;;;23.80;99.90;;;;;;5052010;28;20624;-75
2022/08/17 07:05:58;;;;;;;0.70;0.20;;;23.40;99.90;;;;;;5055485;28;20504;-76
2022/08/17 07:08:38;;;;;;;0.70;0.20;;;23.50;99.90;;;;;;5055833;28;20450;-77
2022/08/17 07:11:11;;;;;;;0.70;0.10;;;23.60;99.90;;;;;;5056228;28;20438;-75
2022/08/17 07:13:46;;;;;;;0.70;0.20;;;23.60;99.90;;;;;;5055646;28;20442;-77
2022/08/17 07:16:26;;;;;;;0.70;0.20;;;23.60;99.90;;;;;;5055969;28;20495;-77
2022/08/17 07:18:56;;;;;;;0.70;0.20;;;23.60;99.90;;;;;;5055865;28;20442;-75
2022/08/17 07:21:43;;;;;;;0.70;0.10;;;23.60;99.90;;;;;;5056676;28;20469;-75
2022/08/17 07:24:23;;;;;;;0.70;0.20;;;23.70;99.90;;;;;;5056805;28;20478;-75
2022/08/17 07:27:14;;;;;;;0.70;0.10;;;23.70;99.90;;;;;;5062750;28;20438;-75
2022/08/17 07:29:49;;;;;;;0.70;0.10;;;23.70;99.90;;;;;;5080127;28;20897;-75
2022/08/17 07:32:23;;;;;;;0.70;0.10;;;23.70;99.90;;;;;;5085929;28;20457;-77
2022/08/17 07:35:09;;;;;;;0.70;0.20;;;23.80;99.90;;;;;;5082605;28;20927;-76
2022/08/17 07:37:39;;;;;;;0.70;0.10;;;23.80;99.90;;;;;;5085427;28;20477;-76
2022/08/17 07:40:18;;;;;;;0.70;0.10;;;23.70;99.90;;;;;;5087513;28;20453;-76
2022/08/17 07:43:05;;;;;;;1.00;0.87;;;23.70;99.90;;;;;;5083384;28;20445;-76
2022/08/17 07:48:25;;;;;;;0.70;0.10;;;23.80;99.90;;;;;;5078014;28;20552;-77
2022/08/17 07:50:56;;;;;;;0.70;0.10;;;23.90;99.90;;;;;;5076971;28;20988;-77
2022/08/17 07:53:26;;;;;;;0.70;0.20;;;23.90;99.90;;;;;;5076537;28;20868;-77
2022/08/17 07:55:54;;;;;;;0.70;0.20;;;24.00;99.90;;;;;;5075594;28;20986;-77
2022/08/17 07:58:25;;;;;;;0.70;0.20;;;24.20;99.90;;;;;;5075010;28;20446;-76
2022/08/17 08:01:05;;;;;;;0.70;0.10;;;24.20;99.90;;;;;;5075012;28;20988;-76
2022/08/17 08:03:41;;;;;;;0.70;0.20;;;24.30;99.90;;;;;;5074929;28;20475;-77
2022/08/17 08:06:20;;;;;;;0.70;0.20;;;24.40;99.90;;;;;;5075020;28;21026;-77
2022/08/17 08:08:52;;;;;;;0.70;0.10;;;24.40;99.90;;;;;;5074852;28;20445;-76
2022/08/17 08:11:31;;;;;;;0.70;0.20;;;24.40;99.90;;;;;;5075281;28;20437;-76
2022/08/17 08:14:23;;;;;;;0.70;0.20;;;24.40;99.90;;;;;;5073057;28;20449;-75
2022/08/17 08:16:58;;;;;;;0.70;0.13;;;24.40;99.90;;;;;;5074490;28;20989;-75
2022/08/17 08:19:28;;;;;;;0.70;0.20;;;24.40;99.90;;;;;;5074891;28;20488;-75
2022/08/17 08:22:04;;;;;;;0.70;0.17;;;24.40;99.90;;;;;;5074687;28;20446;-76
2022/08/17 08:24:54;;;;;;;0.70;0.10;;;24.40;99.90;;;;;;5074129;28;20500;-75
2022/08/17 08:27:33;;;;;;;0.93;0.50;;;24.40;99.90;;;;;;5075369;28;20461;-76
2022/08/17 08:30:08;;;;;;;0.70;0.10;;;24.30;99.90;;;;;;5075454;28;21006;-76
2022/08/17 08:32:53;;;;;;;0.70;0.10;;;24.30;99.90;;;;;;5073701;28;20962;-76
2022/08/17 08:35:31;;;;;;;0.70;0.20;;;24.30;99.90;;;;;;5073520;28;20808;-76
2022/08/17 08:38:08;;;;;;;0.70;0.20;;;24.30;99.90;;;;;;5075105;28;20457;-76
2022/08/17 08:40:49;;;;;;;0.70;0.20;;;24.40;99.90;;;;;;5073284;28;20485;-76
2022/08/17 08:43:26;;;;;;;0.70;0.20;;;24.40;99.90;;;;;;5073958;28;20418;-76
2022/08/17 08:46:04;;;;;;;0.70;0.20;;;24.40;99.90;;;;;;5074074;28;20446;-76
2022/08/17 08:49:01;;;;;;;0.70;0.10;;;24.50;99.90;;;;;;5073598;28;20499;-76
2022/08/17 08:51:51;;;;;;;0.70;0.10;;;24.50;99.90;;;;;;5074213;28;20456;-76
2022/08/17 08:54:33;;;;;;;0.70;0.20;;;24.60;99.90;;;;;;5074531;28;20547;-76
2022/08/17 08:57:11;;;;;;;1.57;1.13;;;24.50;99.90;;;;;;5073607;28;20465;-76
2022/08/17 09:00:11;;;;;;;0.70;0.10;;;24.40;99.90;;;;;;5073605;28;20556;-77
2022/08/17 09:03:07;;;;;;;0.70;0.10;;;24.40;99.90;;;;;;5073185;28;20445;-76
2022/08/17 09:05:55;;;;;;;0.70;0.20;;;24.30;99.90;;;;;;5071589;28;20481;-77
2022/08/17 09:08:30;;;;;;;0.70;0.10;;;24.40;99.90;;;;;;5073474;28;20446;-76
2022/08/17 09:11:04;;;;;;;0.70;0.10;;;24.30;99.90;;;;;;5073424;28;20469;-75
2022/08/17 09:13:42;;;;;;;0.70;0.20;;;24.20;99.90;;;;;;5073208;28;21010;-75
2022/08/17 09:16:14;;;;;;;1.13;1.03;;;24.20;99.90;;;;;;5072960;28;20437;-74
2022/08/17 09:18:50;;;;;;;0.70;0.20;;;24.10;99.90;;;;;;5072878;28;20441;-75
2022/08/17 09:21:36;;;;;;;0.70;0.10;;;24.10;99.90;;;;;;5075139;28;20499;-77
2022/08/17 09:24:21;;;;;;;0.70;0.10;;;24.20;99.90;;;;;;5074464;28;20501;-76
2022/08/17 09:27:38;;;;;;;0.70;0.10;;;24.30;99.90;;;;;;5074924;28;21005;-77
2022/08/17 09:30:09;;;;;;;0.70;0.10;;;24.30;99.90;;;;;;5055360;28;20458;-78
2022/08/17 09:32:40;;;;;;;0.70;0.10;;;24.40;99.90;;;;;;5053859;28;21028;-75
2022/08/17 09:35:14;;;;;;;0.70;0.10;;;24.40;99.90;;;;;;5054115;28;20866;-76
2022/08/17 09:37:50;;;;;;;0.70;0.10;;;24.60;99.90;;;;;;5054029;28;20496;-76
2022/08/17 09:40:25;;;;;;;0.70;0.30;;;24.70;99.90;;;;;;5053345;28;21018;-75
2022/08/17 09:42:59;;;;;;;0.70;0.20;;;24.70;99.90;;;;;;5053641;28;21142;-76
2022/08/17 09:45:32;;;;;;;0.70;0.20;;;24.80;99.90;;;;;;5052773;28;20474;-75
2022/08/17 09:48:06;;;;;;;0.70;0.10;;;24.90;99.90;;;;;;5052516;28;20443;-76
2022/08/17 09:50:39;;;;;;;0.70;0.20;;;;;;;;;;5054978;28;20477;-76
2022/08/17 09:53:27;;;;;;;0.70;0.20;;;25.20;99.90;;;;;;5055476;28;20447;-76
2022/08/17 09:56:23;;;;;;;0.70;0.10;;;25.30;99.90;;;;;;5055882;28;20434;-76
2022/08/17 09:59:18;;;;;;;0.70;0.20;;;25.40;99.90;;;;;;5053960;28;20822;-76
2022/08/17 10:02:00;;;;;;;0.70;0.20;;;25.40;99.90;;;;;;5054130;28;20466;-76
2022/08/17 10:04:40;;;;;;;0.70;0.10;;;25.50;99.90;;;;;;5052255;28;20481;-76
2022/08/17 10:07:14;;;;;;;0.70;0.10;;;25.50;99.90;;;;;;5052023;28;20447;-76
2022/08/17 10:09:54;;;;;;;0.70;0.10;;;25.60;99.90;;;;;;5052642;28;20556;-75
2022/08/17 10:12:33;;;;;;;0.70;0.10;;;25.60;99.90;;;;;;5052172;28;20930;-76
2022/08/17 10:15:20;;;;;;;0.70;0.10;;;25.80;99.90;;;;;;5054344;28;20444;-77
2022/08/17 10:17:56;;;;;;;0.70;0.20;;;;;;;;;;5056463;28;20478;-76
2022/08/17 10:20:30;;;;;;;0.70;0.20;;;25.90;99.90;;;;;;5055459;28;20903;-76
2022/08/17 10:28:51;;;;;;;0.70;0.20;;;25.80;99.90;;;;;;5043559;28;20785;-76
2022/08/17 10:31:26;;;;;;;1.63;0.97;;;25.70;99.90;;;;;;5073233;28;20796;-75
2022/08/17 10:34:33;;;;;;;0.83;0.60;;;25.60;99.90;;;;;;5073029;28;20441;-76
2022/08/17 10:37:48;;;;;;;0.70;0.10;;;25.60;99.90;;;;;;5071894;28;20425;-76
2022/08/17 10:40:27;;;;;;;0.70;0.10;;;25.50;99.90;;;;;;5016261;28;20460;-75
2022/08/17 10:42:58;;;;;;;0.70;0.10;;;25.60;99.90;;;;;;5016021;28;20510;-76
2022/08/17 10:45:37;;;;;;;1.03;0.47;;;25.60;99.90;;;;;;5051104;28;20515;-77
2022/08/17 10:48:27;;;;;;;0.70;0.20;;;25.60;99.90;;;;;;5078192;28;20448;-75
2022/08/17 10:51:06;;;;;;;0.70;0.10;;;25.80;99.90;;;;;;5079228;28;20461;-76
2022/08/17 10:53:50;;;;;;;0.70;0.10;;;25.70;99.90;;;;;;5079429;28;20768;-76
2022/08/17 10:56:22;;;;;;;0.70;0.30;;;26.40;99.90;;;;;;5078029;28;20485;-76
2022/08/17 10:58:52;;;;;;;0.70;0.20;;;25.80;99.90;;;;;;5061079;28;20940;-77
2022/08/17 11:01:59;;;;;;;0.70;0.20;;;25.90;99.90;;;;;;5072023;28;20450;-76
2022/08/17 11:04:42;;;;;;;0.70;0.20;;;25.90;99.90;;;;;;5072292;28;20837;-75
2022/08/17 11:07:17;;;;;;;0.90;0.50;;;25.90;99.90;;;;;;5077926;28;20441;-75
2022/08/17 11:10:07;;;;;;;0.70;0.10;;;25.90;99.90;;;;;;5077376;28;20974;-75
2022/08/17 11:12:43;;;;;;;0.70;0.20;;;25.80;99.90;;;;;;5070874;28;20439;-75
2022/08/17 11:15:23;;;;;;;2.00;1.90;;;25.80;99.90;;;;;;5069817;28;20437;-75
2022/08/17 11:18:17;;;;;;;0.70;0.10;;;25.70;99.90;;;;;;5067936;28;20450;-77
2022/08/17 11:21:17;;;;;;;0.70;0.10;;;25.50;99.90;;;;;;5062558;28;20486;-76
2022/08/17 11:24:19;;;;;;;0.70;0.10;;;25.50;99.90;;;;;;5074688;28;20445;-76
2022/08/17 11:27:03;;;;;;;3.20;1.10;;;25.50;99.90;;;;;;5077608;28;20491;-76
2022/08/17 11:29:37;;;;;;;0.77;0.33;;;25.30;99.90;;;;;;5065203;28;20458;-76
2022/08/17 11:32:12;;;;;;;0.70;0.13;;;25.30;99.90;;;;;;5057852;28;20445;-76
2022/08/17 11:34:43;;;;;;;1.10;0.47;;;25.30;99.90;;;;;;5059420;28;20452;-76
2022/08/17 11:37:36;;;;;;;0.80;0.30;;;25.40;99.90;;;;;;5069973;28;20473;-76
2022/08/17 11:40:21;;;;;;;0.90;0.63;;;25.50;99.90;;;;;;5077776;28;20992;-76
2022/08/17 11:43:03;;;;;;;0.70;0.10;;;25.60;99.90;;;;;;5077633;28;21005;-77
2022/08/17 11:45:51;;;;;;;0.70;0.10;;;25.80;99.90;;;;;;5071189;28;20538;-77
2022/08/17 11:51:33;;;;;;;0.70;0.20;;;26.00;99.90;;;;;;5054171;28;20541;-74
2022/08/17 11:54:06;;;;;;;0.70;0.10;;;26.10;99.90;;;;;;5055822;28;20887;-76
2022/08/17 11:56:55;;;;;;;0.80;0.30;;;26.20;99.90;;;;;;5055379;28;20438;-76
2022/08/17 11:59:59;;;;;;;0.70;0.10;;;26.50;99.90;;;;;;5055043;28;21167;-75
2022/08/17 12:02:47;;;;;;;0.70;0.10;;;26.60;99.90;;;;;;5055610;28;20811;-75
2022/08/17 12:05:33;;;;;;;0.70;0.20;;;26.80;99.90;;;;;;5055074;28;20482;-75
2022/08/17 12:08:16;;;;;;;0.70;0.17;;;27.10;99.90;;;;;;5054636;28;20486;-75
2022/08/17 12:10:59;;;;;;;0.70;0.10;;;27.10;99.90;;;;;;5054404;28;20513;-75
2022/08/17 12:13:29;;;;;;;0.70;0.10;;;27.30;99.90;;;;;;5054521;28;20442;-75
2022/08/17 12:16:08;;;;;;;0.90;0.50;;;27.50;99.90;;;;;;5054654;28;20786;-75
2022/08/17 12:18:40;;;;;;;0.70;0.10;;;27.70;99.90;;;;;;5055167;28;20447;-76
2022/08/17 12:21:28;;;;;;;1.53;1.43;;;27.80;99.90;;;;;;5054330;28;20526;-75
2022/08/17 12:24:05;;;;;;;0.70;0.20;;;27.90;99.90;;;;;;5054461;28;20545;-75
2022/08/17 12:26:35;;;;;;;0.70;0.20;;;27.90;99.90;;;;;;5053985;28;20568;-76
2022/08/17 12:29:06;;;;;;;0.70;0.20;;;28.00;99.90;;;;;;5063364;28;20458;-76
2022/08/17 12:31:46;;;;;;;0.70;0.20;;;;;;;;;;5075208;28;20920;-76
2022/08/17 12:34:18;;;;;;;0.83;0.30;;;27.90;99.90;;;;;;5075126;28;20444;-75
2022/08/17 12:36:49;;;;;;;0.70;0.20;;;27.80;99.90;;;;;;5080181;28;20438;-75
2022/08/17 12:39:22;;;;;;;0.70;0.10;;;27.80;99.90;;;;;;5080162;28;20836;-78
2022/08/17 12:41:55;;;;;;;1.60;1.50;;;27.80;99.90;;;;;;5078675;28;20462;-75
2022/08/17 12:44:31;;;;;;;0.70;0.20;;;27.80;99.90;;;;;;5075084;28;20448;-75
2022/08/17 12:47:03;;;;;;;0.70;0.20;;;27.80;99.90;;;;;;5075798;28;20521;-75
2022/08/17 12:49:34;;;;;;;0.70;0.20;;;27.80;99.90;;;;;;5068180;28;20470;-76
2022/08/17 12:52:07;;;;;;;0.70;0.20;;;27.90;99.90;;;;;;5064980;28;20444;-76
2022/08/17 12:54:44;;;;;;;0.70;0.10;;;27.90;99.90;;;;;;5074552;28;20492;-77
2022/08/17 12:57:15;;;;;;;0.70;0.20;;;28.00;99.90;;;;;;5073785;28;20446;-77
2022/08/17 12:59:47;;;;;;;0.70;0.20;;;28.30;99.90;;;;;;5073800;28;20477;-76
2022/08/17 13:02:28;;;;;;;0.70;0.20;;;28.30;99.90;;;;;;5072934;28;20778;-75
2022/08/17 13:04:58;;;;;;;0.70;0.10;;;29.10;99.90;;;;;;5074015;28;20511;-76
2022/08/17 13:07:29;;;;;;;0.70;0.10;;;28.40;99.90;;;;;;5073574;28;20523;-76
2022/08/17 13:09:59;;;;;;;0.80;0.37;;;28.40;99.90;;;;;;5074523;28;20458;-77
2022/08/17 13:12:32;;;;;;;0.70;0.10;;;28.40;99.90;;;;;;5073832;28;20441;-76
2022/08/17 13:15:00;;;;;;;0.70;0.10;;;28.40;99.90;;;;;;5073860;28;20793;-77
2022/08/17 13:17:33;;;;;;;1.40;1.03;;;28.40;99.90;;;;;;5073946;28;20468;-75
2022/08/17 13:20:05;;;;;;;0.70;0.10;;;28.50;99.90;;;;;;5073659;28;20473;-76
2022/08/17 13:22:33;;;;;;;0.80;0.40;;;28.70;99.90;;;;;;5074187;28;20449;-76
2022/08/17 13:25:07;;;;;;;1.20;0.53;;;28.70;99.90;;;;;;5073924;28;20445;-75
2022/08/17 13:27:35;;;;;;;1.00;0.27;;;28.80;99.90;;;;;;5075198;28;20485;-75
2022/08/17 13:30:10;;;;;;;0.70;0.10;;;28.90;99.90;;;;;;5062321;28;20469;-75
2022/08/17 13:32:41;;;;;;;0.70;0.20;;;28.90;99.90;;;;;;5068417;28;20462;-76
2022/08/17 13:35:40;;;;;;;0.70;0.20;;;29.10;99.90;;;;;;5063442;28;20537;-76
2022/08/17 13:38:12;;;;;;;0.80;0.30;;;29.40;99.90;;;;;;5064505;28;20447;-76
2022/08/17 13:40:51;;;;;;;1.27;0.30;;;29.50;99.90;;;;;;5058565;28;20466;-76
2022/08/17 13:43:43;;;;;;;0.70;0.20;;;29.50;99.90;;;;;;5065982;28;20438;-77
2022/08/17 13:46:18;;;;;;;0.70;0.20;;;29.50;99.90;;;;;;5066881;28;20534;-77
2022/08/17 13:48:56;;;;;;;0.70;0.10;;;29.50;99.90;;;;;;5062440;28;20452;-77
2022/08/17 13:51:30;;;;;;;0.70;0.10;;;29.50;99.90;;;;;;5061930;28;20439;-76
2022/08/17 13:54:02;;;;;;;0.70;0.20;;;29.40;99.90;;;;;;5059288;28;20450;-76
2022/08/17 13:56:39;;;;;;;0.70;0.20;;;29.20;99.90;;;;;;5052604;28;20446;-76